Time;durP1;ratioP1;P1;durP2;ratioP2;P2;SDS_P1;SDS_P2;PMS_P1;PMS_P2;Temp;Humidity;BMP_temperature;BMP_pressure;BME280_temperature;BME280_humidity;BME280_pressure;Samples;Min_cycle;Max_cycle;Signal;HPM_P1;HPM_P2
2022/03/10 00:00:37;;;;;;;32.92;18.80;;;;;;;2.87;62.61;102128.56;5018425;28;20040;-75
2022/03/10 00:03:02;;;;;;;33.58;17.85;;;;;;;2.78;62.22;102132.28;5050045;28;20025;-76
2022/03/10 00:05:28;;;;;;;35.78;19.75;;;;;;;2.71;62.44;102135.94;5053137;28;20029;-76
2022/03/10 00:07:53;;;;;;;33.42;17.70;;;;;;;2.61;62.88;102135.28;5034112;28;20040;-76
2022/03/10 00:10:19;;;;;;;34.92;19.35;;;;;;;2.53;63.57;102138.06;5030281;28;20480;-76
2022/03/10 00:12:52;;;;;;;35.72;18.85;;;;;;;2.53;63.36;102148.69;5025978;28;20048;-76
2022/03/10 00:15:21;;;;;;;30.85;18.42;;;;;;;2.44;63.59;102147.06;5047864;28;20508;-76
2022/03/10 00:17:46;;;;;;;35.30;18.35;;;;;;;2.42;63.38;102138.28;5051237;28;20048;-76
2022/03/10 00:20:12;;;;;;;32.85;19.33;;;;;;;2.42;63.53;102148.03;5051783;28;20063;-76
2022/03/10 00:22:47;;;;;;;33.30;18.85;;;;;;;2.38;64.11;102149.84;5049606;28;20036;-76
2022/03/10 00:25:13;;;;;;;29.35;18.38;;;;;;;2.28;64.41;102148.25;5049254;28;20025;-75
2022/03/10 00:27:39;;;;;;;34.72;18.20;;;;;;;2.27;64.56;102141.22;5050829;28;20029;-75
2022/03/10 00:30:05;;;;;;;32.67;17.65;;;;;;;2.21;63.76;102138.66;5028969;28;20032;-75
2022/03/10 00:32:30;;;;;;;35.05;19.83;;;;;;;2.13;64.58;102136.16;5051049;28;20040;-75
2022/03/10 00:34:56;;;;;;;32.47;18.45;;;;;;;2.14;64.71;102143.22;5057962;28;20033;-75
2022/03/10 00:37:21;;;;;;;35.78;19.23;;;;;;;2.08;65.05;102141.53;5029292;28;20037;-75
2022/03/10 00:39:46;;;;;;;36.20;20.33;;;;;;;2.08;64.86;102138.00;5053186;28;20460;-75
2022/03/10 00:42:11;;;;;;;36.30;20.95;;;;;;;2.06;64.70;102139.81;5025482;28;20033;-75
2022/03/10 00:44:37;;;;;;;38.50;20.25;;;;;;;2.03;64.71;102143.38;5048491;28;20032;-75
2022/03/10 00:47:02;;;;;;;31.83;19.20;;;;;;;2.04;65.48;102149.56;5042764;28;20048;-75
2022/03/10 00:49:27;;;;;;;35.10;18.90;;;;;;;1.98;65.25;102145.25;5050898;28;20504;-75
2022/03/10 00:51:53;;;;;;;34.45;20.00;;;;;;;1.98;66.21;102147.88;5050820;28;20033;-75
2022/03/10 00:54:18;;;;;;;36.38;20.42;;;;;;;2.04;65.75;102145.13;5051824;28;20965;-75
2022/03/10 00:56:43;;;;;;;40.63;22.00;;;;;;;2.08;65.53;102141.53;5028465;28;20084;-75
2022/03/10 00:59:08;;;;;;;36.17;19.40;;;;;;;2.17;65.07;102142.28;5055988;28;20048;-76
2022/03/10 01:01:34;;;;;;;40.63;19.83;;;;;;;2.29;64.85;102143.84;5063906;28;20029;-76
2022/03/10 01:03:59;;;;;;;40.45;19.52;;;;;;;2.40;64.42;102147.16;5054919;28;20142;-76
2022/03/10 01:06:24;;;;;;;33.03;19.08;;;;;;;2.51;64.65;102146.97;5063532;28;20047;-76
2022/03/10 01:08:49;;;;;;;37.80;20.98;;;;;;;2.63;64.03;102144.06;5028475;28;20028;-76
2022/03/10 01:11:15;;;;;;;35.17;19.02;;;;;;;2.73;64.00;102142.13;5033077;28;20036;-76
2022/03/10 01:13:40;;;;;;;35.10;20.17;;;;;;;2.75;64.20;102146.50;5046684;28;20040;-76
2022/03/10 01:16:06;;;;;;;34.20;18.75;;;;;;;2.78;63.61;102151.75;5033780;28;20033;-76
2022/03/10 01:18:31;;;;;;;33.50;19.95;;;;;;;2.76;64.11;102150.88;5047286;28;20047;-76
2022/03/10 01:20:56;;;;;;;37.60;19.88;;;;;;;2.66;64.07;102154.63;5058693;28;20095;-76
2022/03/10 01:23:21;;;;;;;33.28;19.67;;;;;;;2.61;64.27;102149.41;5033222;28;20039;-75
2022/03/10 01:25:47;;;;;;;33.95;20.00;;;;;;;2.60;64.07;102141.47;5045149;28;20032;-75
2022/03/10 01:28:12;;;;;;;31.75;18.23;;;;;;;2.58;64.42;102140.66;5030784;28;20396;-75
2022/03/10 01:30:37;;;;;;;36.92;20.60;;;;;;;2.55;64.51;102138.94;5051905;28;20047;-75
2022/03/10 01:33:02;;;;;;;37.33;21.10;;;;;;;2.57;64.78;102136.25;5038060;28;20036;-75
2022/03/10 01:35:28;;;;;;;39.92;20.27;;;;;;;2.60;64.61;102142.34;5047473;28;20032;-75
2022/03/10 01:37:53;;;;;;;35.85;19.27;;;;;;;2.65;64.52;102138.75;5033160;28;20033;-75
2022/03/10 01:40:19;;;;;;;38.97;18.52;;;;;;;2.60;64.59;102147.66;5033264;28;20032;-75
2022/03/10 01:42:46;;;;;;;34.75;18.80;;;;;;;2.59;64.82;102137.97;5030129;28;20029;-75
2022/03/10 01:45:12;;;;;;;37.22;19.50;;;;;;;2.61;64.60;102145.91;5032822;28;20029;-75
2022/03/10 01:47:38;;;;;;;38.92;20.67;;;;;;;2.65;64.39;102136.97;5042442;28;20028;-75
2022/03/10 01:50:04;;;;;;;34.92;20.25;;;;;;;2.71;64.67;102141.25;5045941;28;20479;-75
2022/03/10 01:52:29;;;;;;;36.22;18.17;;;;;;;2.75;64.20;102137.66;5029405;28;20024;-75
2022/03/10 01:54:56;;;;;;;39.20;20.00;;;;;;;2.73;64.78;102135.03;5029831;28;20040;-75
2022/03/10 01:57:22;;;;;;;37.72;20.30;;;;;;;2.72;64.57;102133.28;5036462;28;20060;-75
2022/03/10 01:59:48;;;;;;;36.47;20.77;;;;;;;2.73;64.62;102137.69;5040211;28;20111;-75
2022/03/10 02:02:13;;;;;;;32.55;19.15;;;;;;;2.75;64.41;102127.03;5049057;28;20174;-75
2022/03/10 02:04:38;;;;;;;35.95;19.15;;;;;;;2.72;64.57;102133.28;5051860;28;20036;-75
2022/03/10 02:07:08;;;;;;;32.85;18.92;;;;;;;2.66;64.93;102128.09;5044100;28;20056;-75
2022/03/10 02:12:17;;;;;;;38.47;19.33;;;;;;;2.53;65.34;102127.44;5048646;28;20039;-75
2022/03/10 02:17:27;;;;;;;32.80;18.63;;;;;;;2.36;65.81;102121.59;5051296;28;20099;-75
2022/03/10 02:19:55;;;;;;;37.22;20.13;;;;;;;2.35;65.78;102123.38;5031199;28;20025;-75
2022/03/10 02:22:21;;;;;;;35.63;20.10;;;;;;;2.29;65.85;102119.97;5045840;28;20052;-75
2022/03/10 02:24:48;;;;;;;37.88;22.85;;;;;;;2.29;66.36;102118.19;5029294;28;20112;-75
2022/03/10 02:27:25;;;;;;;41.67;23.52;;;;;;;2.23;66.50;102123.59;5041491;28;20025;-75
2022/03/10 02:29:57;;;;;;;34.63;20.73;;;;;;;2.17;66.24;102129.03;5046410;28;20021;-76
2022/03/10 02:32:23;;;;;;;38.55;21.23;;;;;;;2.11;66.63;102130.00;5048685;28;20063;-76
2022/03/10 02:34:49;;;;;;;35.70;19.60;;;;;;;2.04;66.69;102128.34;5059501;28;20060;-76
2022/03/10 02:37:15;;;;;;;36.85;21.13;;;;;;;1.97;66.91;102124.06;5034527;28;20037;-76
2022/03/10 02:39:41;;;;;;;38.17;20.77;;;;;;;1.90;66.87;102125.91;5016248;28;20079;-76
2022/03/10 02:42:07;;;;;;;42.80;19.90;;;;;;;1.86;67.24;102126.88;5049454;28;20025;-76
2022/03/10 02:44:33;;;;;;;36.88;20.23;;;;;;;1.82;67.18;102133.16;5042100;28;20029;-75
2022/03/10 02:46:58;;;;;;;36.58;18.85;;;;;;;1.77;67.25;102129.66;5044870;28;20032;-75
2022/03/10 02:49:24;;;;;;;32.33;18.17;;;;;;;1.71;67.06;102126.25;5046852;28;20493;-75
2022/03/10 02:51:50;;;;;;;37.00;19.33;;;;;;;1.66;67.14;102121.91;5021223;28;20036;-75
2022/03/10 02:54:16;;;;;;;35.50;19.13;;;;;;;1.65;67.70;102126.31;5030296;28;20090;-75
2022/03/10 02:56:41;;;;;;;35.72;19.50;;;;;;;1.71;67.63;102120.03;5028200;28;20115;-75
2022/03/10 02:59:07;;;;;;;33.05;18.88;;;;;;;1.68;67.93;102118.31;5048095;28;20029;-75
2022/03/10 03:01:32;;;;;;;33.65;19.13;;;;;;;1.71;67.79;102125.34;5027563;28;20032;-75
2022/03/10 03:03:57;;;;;;;35.10;19.75;;;;;;;1.68;68.62;102118.31;5056399;28;20369;-76
2022/03/10 03:06:23;;;;;;;36.63;18.77;;;;;;;1.66;68.01;102125.41;5042557;28;20028;-76
2022/03/10 03:08:48;;;;;;;35.00;20.45;;;;;;;1.65;68.07;102122.78;5046453;28;20037;-76
2022/03/10 03:11:13;;;;;;;33.42;19.73;;;;;;;1.64;68.05;102127.22;5051335;28;20576;-76
2022/03/10 03:13:39;;;;;;;34.03;19.33;;;;;;;1.63;68.35;102120.16;5048663;28;20060;-76
2022/03/10 03:16:04;;;;;;;37.13;20.02;;;;;;;1.62;68.31;102126.34;5031242;28;20194;-76
2022/03/10 03:18:29;;;;;;;37.30;19.92;;;;;;;1.60;68.52;102128.16;5031455;28;20385;-76
2022/03/10 03:20:55;;;;;;;36.83;17.98;;;;;;;1.61;68.55;102135.22;5041526;28;20029;-76
2022/03/10 03:23:23;;;;;;;33.97;18.05;;;;;;;1.57;68.74;102138.81;5029854;28;20103;-75
2022/03/10 03:25:49;;;;;;;32.38;17.95;;;;;;;1.53;68.46;102139.75;5060584;28;20032;-75
2022/03/10 03:28:14;;;;;;;36.72;19.70;;;;;;;1.47;68.62;102139.84;5040515;28;20036;-75
2022/03/10 03:30:39;;;;;;;37.00;20.58;;;;;;;1.44;69.17;102147.84;5025869;28;20496;-75
2022/03/10 03:33:04;;;;;;;34.50;18.90;;;;;;;1.42;69.32;102147.88;5051238;28;20025;-75
2022/03/10 03:35:31;;;;;;;32.72;20.30;;;;;;;1.36;69.20;102151.47;5042683;28;20025;-75
2022/03/10 03:37:57;;;;;;;36.65;19.90;;;;;;;1.33;68.67;102150.63;5019243;28;20443;-75
2022/03/10 03:40:22;;;;;;;34.92;19.90;;;;;;;1.31;69.19;102152.44;5036350;28;20033;-75
2022/03/10 03:42:47;;;;;;;32.53;17.50;;;;;;;1.25;69.43;102145.44;5039474;28;20100;-75
2022/03/10 03:45:12;;;;;;;34.45;18.40;;;;;;;1.24;69.33;102142.81;5030220;28;20027;-75
2022/03/10 03:47:38;;;;;;;34.70;19.60;;;;;;;1.20;69.93;102139.31;5048132;28;20060;-75
2022/03/10 03:50:04;;;;;;;36.05;19.25;;;;;;;1.18;69.13;102143.78;5032754;28;20025;-76
2022/03/10 03:52:29;;;;;;;34.42;19.15;;;;;;;1.16;69.33;102149.09;5038386;28;20036;-76
2022/03/10 03:54:55;;;;;;;35.22;19.83;;;;;;;1.16;69.93;102158.81;5029840;28;20056;-76
2022/03/10 03:57:20;;;;;;;33.90;19.77;;;;;;;1.14;69.47;102165.88;5017546;28;20476;-76
2022/03/10 03:59:45;;;;;;;34.20;18.33;;;;;;;1.09;69.86;102163.31;5025755;28;20108;-76
2022/03/10 04:02:10;;;;;;;33.00;17.40;;;;;;;1.08;69.70;102164.19;5048590;28;20083;-75
2022/03/10 04:04:36;;;;;;;31.80;18.40;;;;;;;1.02;70.37;102167.78;5054378;28;20461;-75
2022/03/10 04:07:01;;;;;;;38.78;19.25;;;;;;;0.95;70.52;102165.25;5045784;28;20064;-75
2022/03/10 04:09:26;;;;;;;33.28;17.30;;;;;;;0.92;70.09;102167.94;5030946;28;20065;-75
2022/03/10 04:11:53;;;;;;;36.85;19.40;;;;;;;0.90;70.22;102172.38;5047512;28;20049;-75
2022/03/10 04:14:19;;;;;;;33.30;17.88;;;;;;;0.86;70.20;102175.06;5048331;28;20387;-75
2022/03/10 04:16:44;;;;;;;34.92;19.38;;;;;;;0.78;71.04;102181.34;5047427;28;20036;-75
2022/03/10 04:19:10;;;;;;;35.75;18.75;;;;;;;0.75;70.44;102181.34;5048211;28;20027;-75
2022/03/10 04:21:36;;;;;;;35.75;19.35;;;;;;;0.67;70.03;102174.38;5046056;28;20500;-75
2022/03/10 04:24:01;;;;;;;40.38;20.95;;;;;;;0.64;70.65;102174.38;5049869;28;20075;-75
2022/03/10 04:26:26;;;;;;;36.35;20.83;;;;;;;0.57;71.03;102171.84;5045099;28;20037;-76
2022/03/10 04:28:51;;;;;;;38.75;21.08;;;;;;;0.53;70.92;102173.66;5054411;28;20036;-76
2022/03/10 04:31:17;;;;;;;33.03;18.20;;;;;;;0.51;70.42;102171.03;5030671;28;20025;-76
2022/03/10 04:33:43;;;;;;;34.90;19.55;;;;;;;0.48;71.32;102171.06;5042254;28;20043;-76
2022/03/10 04:36:08;;;;;;;33.42;17.45;;;;;;;0.45;71.47;102172.84;5030235;28;20038;-75
2022/03/10 04:38:33;;;;;;;36.55;19.08;;;;;;;0.39;71.48;102163.19;5026721;28;20078;-75
2022/03/10 04:40:59;;;;;;;33.38;18.15;;;;;;;0.32;71.72;102166.78;5047868;28;20040;-75
2022/03/10 04:43:25;;;;;;;34.63;17.27;;;;;;;0.27;71.35;102164.19;5038474;28;20024;-75
2022/03/10 04:45:50;;;;;;;34.17;16.85;;;;;;;0.21;71.64;102161.59;5027217;28;20048;-75
2022/03/10 04:48:15;;;;;;;35.10;18.83;;;;;;;0.22;71.56;102160.72;5017621;28;20037;-75
2022/03/10 04:50:41;;;;;;;35.45;18.10;;;;;;;0.18;72.04;102166.91;5015518;28;20469;-75
2022/03/10 04:53:07;;;;;;;37.30;18.20;;;;;;;0.14;72.36;102167.84;5023827;28;20028;-75
2022/03/10 04:55:32;;;;;;;43.80;18.50;;;;;;;0.13;72.56;102172.25;5023089;28;20017;-75
2022/03/10 04:57:57;;;;;;;34.08;18.70;;;;;;;0.14;72.68;102170.47;5037636;28;20074;-75
2022/03/10 05:00:23;;;;;;;36.85;18.75;;;;;;;0.13;72.58;102168.72;5041521;28;20416;-75
2022/03/10 05:02:48;;;;;;;37.25;17.17;;;;;;;0.13;72.46;102168.72;5017059;28;20025;-75
2022/03/10 05:05:14;;;;;;;35.08;18.70;;;;;;;0.10;72.19;102160.81;5064536;28;20079;-75
2022/03/10 05:07:41;;;;;;;40.92;19.02;;;;;;;0.06;72.40;102174.94;5042252;28;20049;-75
2022/03/10 05:10:07;;;;;;;38.72;18.65;;;;;;;0.04;72.68;102174.94;5017575;28;20132;-75
2022/03/10 05:12:33;;;;;;;36.35;18.25;;;;;;;-0.05;73.56;102167.97;5050658;28;20040;-75
2022/03/10 05:14:58;;;;;;;32.13;17.58;;;;;;;-0.07;73.38;102172.41;5055004;28;20029;-75
2022/03/10 05:17:23;;;;;;;37.40;20.85;;;;;;;-0.08;73.74;102170.63;5025435;28;20094;-75
2022/03/10 05:19:50;;;;;;;32.65;19.58;;;;;;;-0.10;73.66;102172.44;5032647;28;20030;-75
2022/03/10 05:22:16;;;;;;;36.28;18.38;;;;;;;-0.12;73.88;102182.13;5049724;28;20086;-75
2022/03/10 05:24:41;;;;;;;34.15;18.15;;;;;;;-0.16;73.62;102187.44;5031079;28;20017;-75
2022/03/10 05:27:06;;;;;;;35.42;17.98;;;;;;;-0.17;73.78;102181.28;5043811;28;20048;-75
2022/03/10 05:29:32;;;;;;;35.75;19.27;;;;;;;-0.20;73.84;102178.66;5051428;28;20037;-75
2022/03/10 05:31:57;;;;;;;31.88;17.75;;;;;;;-0.22;73.45;102176.03;5050088;28;20124;-75
2022/03/10 05:34:22;;;;;;;36.13;18.45;;;;;;;-0.21;73.00;102179.56;5051188;28;20078;-75
2022/03/10 05:36:47;;;;;;;35.55;18.23;;;;;;;-0.19;73.07;102176.03;5029753;28;20029;-75
2022/03/10 05:39:13;;;;;;;34.40;17.17;;;;;;;-0.19;73.13;102172.47;5048610;28;20564;-75
2022/03/10 05:41:38;;;;;;;34.65;19.10;;;;;;;-0.18;73.02;102179.53;5049355;28;20047;-75
2022/03/10 05:44:04;;;;;;;32.78;18.20;;;;;;;-0.23;73.74;102176.06;5050729;28;20025;-75
2022/03/10 05:46:29;;;;;;;34.92;19.30;;;;;;;-0.26;73.46;102176.09;5049159;28;20369;-75
2022/03/10 05:48:54;;;;;;;37.92;18.55;;;;;;;-0.28;73.76;102175.19;5042956;28;20051;-75
2022/03/10 05:51:20;;;;;;;38.17;19.08;;;;;;;-0.30;73.95;102174.34;5031379;28;20078;-75
2022/03/10 05:53:45;;;;;;;39.80;18.83;;;;;;;-0.28;73.39;102175.19;5051575;28;20041;-75
2022/03/10 05:56:10;;;;;;;33.42;17.45;;;;;;;-0.29;73.10;102178.72;5032605;28;20056;-75
2022/03/10 05:58:36;;;;;;;32.58;17.98;;;;;;;-0.28;74.28;102178.75;5053772;28;20044;-75
2022/03/10 06:01:01;;;;;;;32.90;17.55;;;;;;;-0.27;74.09;102175.19;5025679;28;20116;-75
2022/03/10 06:03:26;;;;;;;34.33;17.30;;;;;;;-0.23;74.18;102173.41;5050845;28;20028;-75
2022/03/10 06:05:51;;;;;;;33.45;17.88;;;;;;;-0.23;74.38;102170.78;5050619;28;20174;-75
2022/03/10 06:08:17;;;;;;;32.55;17.00;;;;;;;-0.20;73.72;102170.75;5056977;28;20037;-75
2022/03/10 06:10:42;;;;;;;34.58;17.52;;;;;;;-0.19;74.41;102175.13;5025845;28;20481;-75
2022/03/10 06:13:08;;;;;;;32.17;17.42;;;;;;;-0.20;74.03;102182.19;5027017;28;20056;-75
2022/03/10 06:15:33;;;;;;;35.25;18.10;;;;;;;-0.15;74.03;102174.22;5013196;28;20064;-75
2022/03/10 06:17:58;;;;;;;35.80;19.17;;;;;;;-0.03;73.72;102171.50;5026556;28;20033;-75
2022/03/10 06:20:24;;;;;;;35.67;17.38;;;;;;;0.06;73.62;102175.84;5030903;28;20048;-76
2022/03/10 06:22:50;;;;;;;36.08;18.13;;;;;;;0.15;73.18;102180.16;5029195;28;20664;-76
2022/03/10 06:25:15;;;;;;;33.65;17.55;;;;;;;0.20;73.05;102173.06;5030098;28;20037;-75
2022/03/10 06:27:40;;;;;;;38.72;19.83;;;;;;;0.33;72.94;102177.34;5020230;28;20033;-75
2022/03/10 06:30:06;;;;;;;32.00;15.63;;;;;;;0.39;72.45;102180.84;5023484;28;20046;-75
2022/03/10 06:32:31;;;;;;;35.70;17.48;;;;;;;0.43;72.35;102182.56;5015728;28;20024;-75
2022/03/10 06:34:59;;;;;;;37.30;17.92;;;;;;;0.48;71.89;102180.75;5030614;28;20429;-75
2022/03/10 06:37:24;;;;;;;39.42;18.92;;;;;;;0.55;71.75;102182.44;5025723;28;20096;-75
2022/03/10 06:39:49;;;;;;;38.22;16.83;;;;;;;0.60;71.34;102182.38;5024376;28;20485;-75
2022/03/10 06:42:15;;;;;;;33.65;16.80;;;;;;;0.68;71.46;102183.19;5023631;28;20041;-76
2022/03/10 06:44:40;;;;;;;34.78;18.02;;;;;;;0.76;71.85;102191.94;5027819;28;20113;-75
2022/03/10 06:47:09;;;;;;;35.95;19.52;;;;;;;0.80;71.74;102188.34;5027709;28;20033;-76
2022/03/10 06:49:34;;;;;;;34.15;18.23;;;;;;;0.90;71.09;102188.25;5024549;28;20029;-76
2022/03/10 06:52:00;;;;;;;33.75;17.42;;;;;;;0.95;71.33;102189.97;5022466;28;20040;-75
2022/03/10 06:54:25;;;;;;;36.20;18.17;;;;;;;1.03;70.67;102195.16;5023943;28;20029;-75
2022/03/10 06:56:51;;;;;;;32.05;17.40;;;;;;;1.07;70.35;102191.59;5026096;28;20021;-75
2022/03/10 06:59:17;;;;;;;36.58;18.02;;;;;;;1.15;70.97;102194.13;5039283;28;20037;-75
2022/03/10 07:01:42;;;;;;;32.03;18.27;;;;;;;1.23;70.74;102192.28;5028526;28;20068;-75
2022/03/10 07:04:07;;;;;;;36.35;18.65;;;;;;;1.30;70.03;102196.56;5021942;28;20033;-75
2022/03/10 07:06:33;;;;;;;33.38;18.42;;;;;;;1.37;70.28;102200.03;5016334;28;20515;-75
2022/03/10 07:08:58;;;;;;;34.75;17.95;;;;;;;1.46;69.63;102199.88;5034216;28;20034;-75
2022/03/10 07:11:25;;;;;;;38.00;17.90;;;;;;;1.56;68.95;102201.50;5013023;28;20021;-75
2022/03/10 07:13:50;;;;;;;35.78;18.05;;;;;;;1.67;68.92;102204.03;5030148;28;20436;-76
2022/03/10 07:16:15;;;;;;;38.40;18.80;;;;;;;1.78;68.61;102208.31;5030703;28;20032;-76
2022/03/10 07:18:41;;;;;;;34.58;18.13;;;;;;;1.88;68.60;102201.97;5028147;28;20033;-77
2022/03/10 07:21:06;;;;;;;36.05;17.98;;;;;;;1.98;68.17;102198.28;5051974;28;20070;-77
2022/03/10 07:23:32;;;;;;;34.85;19.30;;;;;;;2.10;68.13;102197.19;5023017;28;20021;-76
2022/03/10 07:25:57;;;;;;;35.50;19.38;;;;;;;2.18;67.87;102205.91;5034971;28;20025;-77
2022/03/10 07:28:23;;;;;;;35.47;18.55;;;;;;;2.29;67.48;102205.72;5020894;28;20040;-77
2022/03/10 07:30:49;;;;;;;39.17;19.20;;;;;;;2.35;66.86;102195.00;5045976;28;20045;-77
2022/03/10 07:33:14;;;;;;;35.30;17.63;;;;;;;2.46;67.10;102200.13;5039862;28;20038;-77
2022/03/10 07:35:40;;;;;;;41.42;20.02;;;;;;;2.55;66.61;102199.97;5028925;28;20051;-77
2022/03/10 07:38:05;;;;;;;34.60;18.65;;;;;;;2.65;65.97;102200.69;5041690;28;20078;-78
2022/03/10 07:40:31;;;;;;;34.05;17.83;;;;;;;2.75;66.09;102194.28;5047080;28;20041;-78
2022/03/10 07:42:56;;;;;;;37.33;17.88;;;;;;;2.85;65.13;102194.13;5046587;28;20029;-77
2022/03/10 07:45:22;;;;;;;33.30;18.20;;;;;;;2.93;65.25;102197.50;5044300;28;20032;-76
2022/03/10 07:47:47;;;;;;;37.33;19.50;;;;;;;3.00;65.52;102192.94;5047163;28;20058;-76
2022/03/10 07:50:12;;;;;;;34.75;18.90;;;;;;;3.11;64.80;102194.47;5044992;28;20051;-76
2022/03/10 07:52:39;;;;;;;35.95;19.40;;;;;;;3.21;64.36;102195.16;5047659;28;20120;-77
2022/03/10 07:55:05;;;;;;;34.03;18.67;;;;;;;3.31;64.66;102191.41;5047071;28;20289;-77
2022/03/10 07:57:31;;;;;;;32.83;18.08;;;;;;;3.41;64.21;102196.50;5046956;28;20021;-77
2022/03/10 07:59:56;;;;;;;32.08;17.88;;;;;;;3.50;64.20;102191.00;5047437;28;20086;-76
2022/03/10 08:02:21;;;;;;;39.78;18.95;;;;;;;3.62;63.54;102195.16;5047377;28;20281;-76
2022/03/10 08:04:47;;;;;;;38.30;19.85;;;;;;;3.73;63.06;102193.13;5049905;28;20519;-77
2022/03/10 08:07:12;;;;;;;39.08;18.30;;;;;;;3.81;62.97;102185.84;5046282;28;20059;-77
2022/03/10 08:09:37;;;;;;;39.10;20.50;;;;;;;3.92;62.18;102188.25;5046642;28;20037;-77
2022/03/10 08:12:04;;;;;;;34.97;17.85;;;;;;;4.02;61.68;102186.25;5046573;28;20021;-76
2022/03/10 08:14:29;;;;;;;34.05;18.25;;;;;;;4.13;61.26;102185.97;5047591;28;20083;-76
2022/03/10 08:16:54;;;;;;;31.77;17.75;;;;;;;4.24;60.74;102196.38;5047658;28;20480;-76
2022/03/10 08:19:20;;;;;;;37.53;19.88;;;;;;;4.33;60.61;102199.69;5010978;28;20041;-75
2022/03/10 08:21:45;;;;;;;37.10;18.77;;;;;;;4.43;60.00;102196.78;5046729;28;20033;-77
2022/03/10 08:24:10;;;;;;;34.38;18.80;;;;;;;4.54;59.17;102192.03;5044027;28;20042;-77
2022/03/10 08:26:36;;;;;;;35.17;19.52;;;;;;;4.66;59.43;102198.84;5012299;28;20404;-77
2022/03/10 08:29:01;;;;;;;34.90;18.52;;;;;;;4.79;59.07;102192.25;5046014;28;20029;-77
2022/03/10 08:31:27;;;;;;;38.03;19.52;;;;;;;4.87;58.24;102198.22;5027366;28;20477;-77
2022/03/10 08:33:52;;;;;;;33.70;18.92;;;;;;;4.96;58.41;102204.22;5045621;28;20037;-77
2022/03/10 08:36:17;;;;;;;35.88;19.55;;;;;;;5.02;58.22;102196.94;5045723;28;20544;-77
2022/03/10 08:38:43;;;;;;;37.33;19.05;;;;;;;5.08;58.41;102193.22;5030251;28;20072;-77
2022/03/10 08:41:09;;;;;;;33.17;19.50;;;;;;;5.17;57.11;102187.63;5046220;28;20033;-77
2022/03/10 08:43:34;;;;;;;34.72;17.45;;;;;;;5.25;57.55;102188.25;5047043;28;20025;-77
2022/03/10 08:46:02;;;;;;;38.05;18.20;;;;;;;5.32;57.54;102186.31;5028009;28;20064;-77
2022/03/10 08:48:28;;;;;;;35.40;17.83;;;;;;;5.40;56.86;102186.97;5029771;28;20170;-77
2022/03/10 08:50:53;;;;;;;33.97;19.02;;;;;;;5.47;56.86;102187.63;5047867;28;20120;-77
2022/03/10 08:53:18;;;;;;;35.38;18.20;;;;;;;5.56;56.21;102182.03;5039702;28;20032;-77
2022/03/10 08:55:44;;;;;;;33.33;17.95;;;;;;;5.63;56.81;102185.38;5033058;28;20032;-78
2022/03/10 08:58:09;;;;;;;35.08;20.83;;;;;;;5.69;56.70;102185.16;5028782;28;20035;-78
2022/03/10 09:00:34;;;;;;;33.53;19.27;;;;;;;5.75;55.86;102182.31;5047960;28;20504;-76
2022/03/10 09:03:01;;;;;;;37.00;19.15;;;;;;;5.82;55.70;102191.00;5049437;28;20032;-76
2022/03/10 09:05:26;;;;;;;32.53;18.77;;;;;;;5.89;55.61;102186.34;5067467;28;20028;-76
2022/03/10 09:07:51;;;;;;;35.72;18.27;;;;;;;5.96;55.70;102182.56;5030309;28;20065;-76
2022/03/10 09:10:17;;;;;;;38.08;18.95;;;;;;;6.02;56.26;102181.50;5047773;28;20226;-76
2022/03/10 09:12:42;;;;;;;34.80;18.73;;;;;;;6.09;55.61;102177.69;5047822;28;20040;-76
2022/03/10 09:15:09;;;;;;;33.38;19.35;;;;;;;6.16;55.81;102173.03;5031343;28;20376;-77
2022/03/10 09:17:34;;;;;;;34.72;18.63;;;;;;;6.21;56.23;102161.28;5034280;28;20168;-76
2022/03/10 09:20:00;;;;;;;38.72;20.02;;;;;;;6.23;55.79;102170.09;5030202;28;20532;-76
2022/03/10 09:22:25;;;;;;;32.47;17.90;;;;;;;6.30;56.37;102166.31;5050068;28;20506;-77
2022/03/10 09:24:52;;;;;;;34.95;19.67;;;;;;;6.36;55.62;102159.03;5049753;28;20029;-77
2022/03/10 09:27:18;;;;;;;33.78;18.80;;;;;;;6.49;56.22;102160.34;5039984;28;20033;-77
2022/03/10 09:29:43;;;;;;;35.35;18.88;;;;;;;6.59;55.03;102161.75;5047209;28;20029;-76
2022/03/10 09:32:09;;;;;;;36.45;18.55;;;;;;;6.70;55.28;102155.16;5045591;28;20116;-76
2022/03/10 09:34:34;;;;;;;35.80;19.17;;;;;;;6.70;55.84;102144.47;5037704;28;20036;-76
2022/03/10 09:37:00;;;;;;;37.25;19.75;;;;;;;6.79;54.32;102147.69;5046577;28;20281;-76
2022/03/10 09:39:25;;;;;;;33.60;17.83;;;;;;;6.83;55.09;102143.09;5047617;28;20069;-76
2022/03/10 09:41:51;;;;;;;35.08;18.65;;;;;;;6.92;54.75;102140.06;5044989;28;20029;-76
2022/03/10 09:44:20;;;;;;;33.75;19.08;;;;;;;7.00;55.43;102140.66;5031696;28;20045;-76
2022/03/10 09:46:50;;;;;;;35.33;18.58;;;;;;;7.08;55.68;102139.50;5041144;28;20041;-76
2022/03/10 09:49:16;;;;;;;35.28;17.40;;;;;;;7.17;54.85;102137.38;5043967;28;20029;-76
2022/03/10 09:51:41;;;;;;;33.17;18.67;;;;;;;7.26;55.46;102138.81;5034300;28;20508;-76
2022/03/10 09:54:07;;;;;;;38.50;18.30;;;;;;;7.35;54.36;102135.78;5027891;28;20021;-76
2022/03/10 09:56:36;;;;;;;38.78;19.52;;;;;;;7.47;54.39;102137.09;5048957;28;20039;-75
2022/03/10 09:59:04;;;;;;;37.97;20.27;;;;;;;7.54;55.09;102129.72;5045513;28;20029;-76
2022/03/10 10:01:29;;;;;;;32.58;17.65;;;;;;;7.58;55.43;102125.94;5045860;28;20067;-76
2022/03/10 10:03:55;;;;;;;38.50;21.23;;;;;;;7.61;54.59;102120.47;5052720;28;20056;-76
2022/03/10 10:06:20;;;;;;;37.28;19.63;;;;;;;7.72;54.58;102127.19;5045545;28;20293;-76
2022/03/10 10:08:54;;;;;;;33.20;18.52;;;;;;;7.73;55.15;102118.25;5045463;28;20075;-76
2022/03/10 10:11:29;;;;;;;36.30;18.80;;;;;;;7.78;55.61;102124.28;5046179;28;20040;-76
2022/03/10 10:13:54;;;;;;;31.13;18.70;;;;;;;7.80;55.08;102119.72;5046256;28;20393;-76
2022/03/10 10:16:21;;;;;;;32.78;17.38;;;;;;;7.84;54.52;102124.88;5042809;28;20055;-76
2022/03/10 10:18:46;;;;;;;33.83;17.52;;;;;;;7.96;54.60;102111.94;5043987;28;20140;-77
2022/03/10 10:21:14;;;;;;;33.03;18.88;;;;;;;8.04;54.69;102113.34;5041090;28;20127;-77
2022/03/10 10:23:40;;;;;;;38.03;19.13;;;;;;;8.19;53.56;102116.31;5042966;28;20036;-77
2022/03/10 10:26:13;;;;;;;34.00;18.23;;;;;;;8.32;54.19;102112.16;5049261;28;20047;-77
2022/03/10 10:28:41;;;;;;;34.15;17.65;;;;;;;8.37;53.79;102112.81;5056738;28;20388;-77
2022/03/10 10:31:13;;;;;;;34.97;19.55;;;;;;;8.46;53.37;102110.72;5044543;28;20048;-77
2022/03/10 10:33:40;;;;;;;32.00;17.50;;;;;;;8.56;53.47;102107.59;5046230;28;20037;-77
2022/03/10 10:36:14;;;;;;;35.33;19.50;;;;;;;8.64;53.75;102109.91;5045747;28;20033;-77
2022/03/10 10:38:40;;;;;;;32.25;17.60;;;;;;;8.78;52.83;102111.97;5042239;28;20035;-77
2022/03/10 10:41:22;;;;;;;34.97;18.35;;;;;;;8.85;52.65;102102.69;5027271;28;20072;-77
2022/03/10 10:43:54;;;;;;;31.77;16.88;;;;;;;8.85;52.80;102101.84;5026017;28;20033;-76
2022/03/10 10:46:30;;;;;;;36.88;19.58;;;;;;;8.92;52.44;102097.94;5027507;28;20025;-77
2022/03/10 10:48:57;;;;;;;32.45;18.13;;;;;;;9.02;51.82;102096.56;5027587;28;20740;-77
2022/03/10 10:51:35;;;;;;;34.08;17.45;;;;;;;9.12;52.52;102096.13;5045033;28;20104;-77
2022/03/10 10:54:04;;;;;;;30.38;16.27;;;;;;;9.16;52.30;102098.56;5049233;28;20461;-77
2022/03/10 10:56:30;;;;;;;32.10;16.20;;;;;;;9.25;53.02;102099.94;5046284;28;20120;-76
2022/03/10 10:58:55;;;;;;;34.72;17.40;;;;;;;9.22;52.21;102100.09;5043918;28;20885;-77
2022/03/10 11:01:32;;;;;;;33.95;16.73;;;;;;;9.32;51.98;102095.19;5046853;28;20030;-78
2022/03/10 11:03:59;;;;;;;31.25;17.20;;;;;;;9.38;51.80;102090.38;5049163;28;20033;-78
2022/03/10 11:06:25;;;;;;;33.67;17.02;;;;;;;9.42;52.01;102085.75;5039267;28;20070;-76
2022/03/10 11:08:51;;;;;;;31.05;16.75;;;;;;;9.51;52.39;102082.59;5058434;28;20102;-77
2022/03/10 11:11:18;;;;;;;31.95;15.82;;;;;;;9.59;52.11;102076.84;5027983;28;20025;-78
2022/03/10 11:13:43;;;;;;;32.88;18.25;;;;;;;9.73;51.13;102085.09;5039332;28;20119;-77
2022/03/10 11:16:08;;;;;;;32.75;17.58;;;;;;;9.80;51.88;102077.59;5044813;28;20444;-77